This is the latest recevied weather packets stored in our database for station/object OH2HCY. If no packets are shown the sender has not sent any weather packets the latest 10 day(s).
| Time | Temp. | Humidity | Pressure | Rain* | Wind** | Luminosity | Snow |
|---|---|---|---|---|---|---|---|
| 1777975110 | 11.11° C | 47% | 998.7 hPa | - | - | - | - |
| 1777974570 | 11.67° C | 41% | 998.3 hPa | - | - | - | - |
| 1777974021 | 11.11° C | 47% | 998.4 hPa | - | - | - | - |
| 1777973490 | 11.67° C | 48% | 998.1 hPa | - | - | - | - |
| 1777972980 | 12.22° C | 50% | 997.9 hPa | - | - | - | - |
| 1777972444 | 11.67° C | 52% | 998 hPa | - | - | - | - |
| 1777971935 | 11.67° C | 51% | 998 hPa | - | - | - | - |
| 1777971390 | 11.67° C | 50% | 997.5 hPa | - | - | - | - |
| 1777970843 | 12.22° C | 46% | 997.4 hPa | - | - | - | - |
| 1777970300 | 12.22° C | 48% | 997.5 hPa | - | - | - | - |
| 1777969760 | 11.11° C | 49% | 997.8 hPa | - | - | - | - |
| 1777969225 | 11.11° C | 50% | 997.7 hPa | - | - | - | - |
| 1777968669 | 11.11° C | 50% | 997.6 hPa | - | - | - | - |
| 1777968130 | 11.67° C | 51% | 997.3 hPa | - | - | - | - |
| 1777967615 | 11.67° C | 50% | 997 hPa | - | - | - | - |
| 1777967095 | 12.22° C | 51% | 997 hPa | - | - | - | - |
| 1777966567 | 12.22° C | 51% | 997 hPa | - | - | - | - |
| 1777966022 | 11.67° C | 53% | 997.2 hPa | - | - | - | - |
| 1777965455 | 11.11° C | 56% | 997.4 hPa | - | - | - | - |
| 1777964885 | 10.56° C | 59% | 997.5 hPa | - | - | - | - |
| 1777964335 | 10° C | 61% | 997.7 hPa | - | - | - | - |
| 1777963800 | 10° C | 62% | 997.7 hPa | - | - | - | - |
| 1777963225 | 10° C | 62% | 997.8 hPa | - | - | - | - |
| 1777962689 | 9.44° C | 63% | 997.9 hPa | - | - | - | - |
| 1777962150 | 9.44° C | 65% | 997.9 hPa | - | - | - | - |
* Rain since midnight (hover to see other rain measurements)
** Current wind speed in m/s (hover to see current wind gust speed)